Time;durP1;ratioP1;P1;durP2;ratioP2;P2;SDS_P1;SDS_P2;PMS_P1;PMS_P2;Temp;Humidity;BMP_temperature;BMP_pressure;BME280_temperature;BME280_humidity;BME280_pressure;Samples;Min_cycle;Max_cycle;Signal;HPM_P1;HPM_P2
2022/12/21 00:01:16;;;;;;;38.97;28.27;;;;;;;10.15;84.51;100980.75;5091627;28;20077;-59
2022/12/21 00:03:43;;;;;;;32.85;27.13;;;;;;;10.13;84.74;100967.13;5092272;28;20040;-60
2022/12/21 00:06:09;;;;;;;33.83;27.75;;;;;;;10.13;84.51;100957.97;5091009;28;20472;-59
2022/12/21 00:08:41;;;;;;;35.70;27.88;;;;;;;10.11;84.63;100968.47;5091413;28;20062;-59
2022/12/21 00:11:07;;;;;;;38.88;29.02;;;;;;;10.12;84.55;100968.22;5090228;28;20375;-59
2022/12/21 00:13:32;;;;;;;36.00;28.42;;;;;;;10.11;84.71;100965.69;5078283;28;20032;-60
2022/12/21 00:16:04;;;;;;;34.80;27.77;;;;;;;10.10;84.83;100964.84;5091992;28;20024;-60
2022/12/21 00:18:34;;;;;;;35.63;27.80;;;;;;;10.07;84.64;100970.91;5091174;28;20486;-59
2022/12/21 00:21:20;;;;;;;34.45;27.58;;;;;;;10.10;84.46;100970.41;5090853;28;20119;-60
2022/12/21 00:23:47;;;;;;;34.30;27.77;;;;;;;10.07;84.53;100971.72;5091189;28;20028;-59
2022/12/21 00:26:14;;;;;;;36.80;28.30;;;;;;;10.05;84.35;100970.28;5091358;28;20032;-60
2022/12/21 00:28:40;;;;;;;35.72;28.90;;;;;;;10.06;84.36;100977.50;5090047;28;20031;-60
2022/12/21 00:31:14;;;;;;;37.55;28.73;;;;;;;10.05;84.20;100971.13;5085928;28;20031;-60
2022/12/21 00:33:41;;;;;;;36.08;27.55;;;;;;;10.04;84.29;100971.38;5090784;28;20028;-60
2022/12/21 00:36:09;;;;;;;34.85;28.70;;;;;;;10.05;84.33;100978.59;5090376;28;20050;-60
2022/12/21 00:38:35;;;;;;;37.67;27.85;;;;;;;10.05;84.47;100976.66;5090879;28;20047;-60
2022/12/21 00:41:04;;;;;;;35.10;27.27;;;;;;;10.03;84.14;100970.53;5090746;28;20020;-59
2022/12/21 00:43:31;;;;;;;38.15;27.67;;;;;;;10.02;84.34;100965.22;5089797;28;20031;-59
2022/12/21 00:45:57;;;;;;;37.00;28.90;;;;;;;10.04;84.36;100976.94;5091454;28;20079;-60
2022/12/21 00:48:23;;;;;;;37.90;29.73;;;;;;;10.01;84.42;100977.41;5086222;28;20028;-59
2022/12/21 00:50:48;;;;;;;36.65;29.20;;;;;;;10.02;84.17;100973.53;5073578;28;20039;-59
2022/12/21 00:53:15;;;;;;;39.58;30.02;;;;;;;10.02;84.35;100974.41;5089049;28;20092;-60
2022/12/21 00:55:41;;;;;;;38.17;29.65;;;;;;;10.01;84.36;100975.47;5090786;28;20023;-60
2022/12/21 00:58:06;;;;;;;39.00;30.27;;;;;;;10.00;84.56;100976.56;5090003;28;20036;-59
2022/12/21 01:00:32;;;;;;;42.13;30.52;;;;;;;10.01;84.54;100981.03;5091417;28;20089;-59
2022/12/21 01:02:57;;;;;;;37.90;30.15;;;;;;;10.02;84.38;100985.50;5090451;28;20036;-60
2022/12/21 01:05:23;;;;;;;44.40;32.33;;;;;;;10.00;84.22;100982.13;5090880;28;20016;-59
2022/12/21 01:07:48;;;;;;;41.15;30.52;;;;;;;9.98;84.44;100989.88;5091022;28;20501;-59
2022/12/21 01:10:14;;;;;;;36.28;29.35;;;;;;;10.00;84.23;100992.38;5077585;28;20043;-59
2022/12/21 01:12:39;;;;;;;38.80;29.35;;;;;;;9.98;84.27;100987.09;5089188;28;20028;-59
2022/12/21 01:15:06;;;;;;;38.83;29.90;;;;;;;9.98;84.16;100994.53;5090697;28;20033;-59
2022/12/21 01:17:31;;;;;;;35.22;28.33;;;;;;;9.96;84.14;100992.03;5088890;28;20383;-59
2022/12/21 01:19:56;;;;;;;33.75;27.23;;;;;;;9.97;84.06;101004.78;5090526;28;20021;-59
2022/12/21 01:22:21;;;;;;;35.47;28.83;;;;;;;9.97;84.30;100998.41;5090641;28;20048;-59
2022/12/21 01:24:47;;;;;;;39.65;29.13;;;;;;;9.94;84.22;100997.00;5089794;28;20032;-59
2022/12/21 01:27:12;;;;;;;39.90;30.45;;;;;;;9.96;83.88;100994.78;5082330;28;20127;-59
2022/12/21 01:29:38;;;;;;;37.95;28.48;;;;;;;9.95;84.08;100990.34;5070334;28;20021;-59
2022/12/21 01:32:03;;;;;;;35.08;27.80;;;;;;;9.96;84.09;100988.41;5078577;28;20035;-60
2022/12/21 01:34:29;;;;;;;32.75;26.02;;;;;;;9.94;84.10;101007.22;5089929;28;20071;-59
2022/12/21 01:36:54;;;;;;;37.10;29.60;;;;;;;9.94;84.06;101004.44;5090345;28;20064;-59
2022/12/21 01:39:19;;;;;;;40.13;29.77;;;;;;;9.92;84.14;101007.47;5089766;28;20432;-60
2022/12/21 01:41:44;;;;;;;39.55;30.60;;;;;;;9.95;84.20;101018.06;5089928;28;20028;-59
2022/12/21 01:44:51;;;;;;;43.10;31.67;;;;;;;9.98;84.37;101020.38;5086061;28;20472;-60
2022/12/21 01:47:24;;;;;;;40.38;29.90;;;;;;;9.94;84.00;101023.84;5088330;28;20114;-59
2022/12/21 01:49:55;;;;;;;40.25;30.10;;;;;;;9.94;84.10;101026.63;5090370;28;20043;-60
2022/12/21 01:52:21;;;;;;;47.80;33.40;;;;;;;9.92;84.30;101023.25;5089168;28;20038;-59
2022/12/21 01:54:57;;;;;;;46.67;33.25;;;;;;;9.92;84.15;101020.50;5089778;28;20025;-59
2022/12/21 01:57:24;;;;;;;45.70;31.73;;;;;;;9.92;84.07;101009.41;5089922;28;20028;-59
2022/12/21 01:59:54;;;;;;;40.78;31.00;;;;;;;9.89;83.94;101012.66;5089009;28;20105;-59
2022/12/21 02:02:25;;;;;;;40.33;29.52;;;;;;;9.88;83.72;101000.72;5084183;28;20044;-59
2022/12/21 02:04:52;;;;;;;41.38;31.60;;;;;;;9.87;84.02;101007.38;5089721;28;20035;-59
2022/12/21 02:07:19;;;;;;;48.35;33.63;;;;;;;9.90;84.21;101003.25;5089210;28;20031;-60
2022/12/21 02:09:45;;;;;;;41.97;32.42;;;;;;;9.91;83.94;100996.63;5089990;28;20035;-59
2022/12/21 02:12:15;;;;;;;44.10;32.50;;;;;;;9.88;84.17;101003.50;5089846;28;20369;-59
2022/12/21 02:14:44;;;;;;;38.85;29.90;;;;;;;9.86;84.03;100997.34;5088806;28;20074;-60
2022/12/21 02:17:24;;;;;;;44.88;32.55;;;;;;;9.89;84.34;100996.03;5087531;28;20540;-59
2022/12/21 02:20:13;;;;;;;42.28;31.40;;;;;;;9.89;84.11;101001.56;5069537;28;20028;-60
2022/12/21 02:23:17;;;;;;;42.35;29.25;;;;;;;9.92;84.07;101001.91;5074561;28;20020;-60
2022/12/21 02:26:00;;;;;;;35.75;28.20;;;;;;;9.90;83.86;100994.91;5090087;28;20097;-59
2022/12/21 02:28:49;;;;;;;39.42;30.88;;;;;;;9.87;84.05;100990.72;5086305;28;20039;-59
2022/12/21 02:31:44;;;;;;;38.30;29.13;;;;;;;9.88;83.76;100995.19;5089033;28;20066;-60
2022/12/21 02:34:24;;;;;;;40.55;29.33;;;;;;;9.86;84.20;101000.13;5084915;28;20052;-60
2022/12/21 02:37:27;;;;;;;35.83;27.73;;;;;;;9.86;83.81;100990.97;5088510;28;20455;-60
2022/12/21 02:40:07;;;;;;;;;;;;;;;9.96;83.74;100991.19;5089438;28;20036;-59
2022/12/21 02:45:39;;;;;;;47.47;34.65;;;;;;;9.82;84.28;101001.69;5091026;28;20043;-59
2022/12/21 02:48:33;;;;;;;45.53;32.65;;;;;;;9.89;84.25;100991.31;5072767;28;20033;-60
2022/12/21 02:51:03;;;;;;;43.78;33.58;;;;;;;9.83;84.10;100981.22;5065744;28;20113;-60
2022/12/21 02:53:37;;;;;;;48.65;34.25;;;;;;;9.83;84.34;100984.00;5093049;28;20036;-59
2022/12/21 02:56:03;;;;;;;48.22;33.75;;;;;;;9.81;84.14;100980.59;5092717;28;20028;-60
2022/12/21 02:58:28;;;;;;;44.15;33.10;;;;;;;9.81;84.13;100983.38;5090978;28;20051;-60
2022/12/21 03:01:19;;;;;;;44.45;32.80;;;;;;;9.80;84.04;100988.09;5093288;28;20028;-60
2022/12/21 03:04:12;;;;;;;46.78;33.45;;;;;;;9.80;84.07;100985.31;5066650;28;20155;-59
2022/12/21 03:06:50;;;;;;;44.85;33.17;;;;;;;9.79;84.38;100993.88;5086452;28;20472;-60
2022/12/21 03:10:09;;;;;;;51.03;34.75;;;;;;;9.86;84.46;100988.19;5087644;28;20541;-60
2022/12/21 03:13:02;;;;;;;46.30;34.60;;;;;;;9.84;84.37;100980.13;5005565;28;20053;-60
2022/12/21 03:15:42;;;;;;;49.83;35.05;;;;;;;9.82;84.35;100972.06;5080115;28;20159;-60
2022/12/21 03:18:30;;;;;;;52.95;35.13;;;;;;;9.86;84.30;100980.72;5090624;28;20043;-59
2022/12/21 03:21:06;;;;;;;47.55;35.20;;;;;;;9.82;84.18;100977.59;5050373;28;20043;-60
2022/12/21 03:23:41;;;;;;;47.85;34.10;;;;;;;9.80;84.26;100987.25;5088632;28;20074;-60
2022/12/21 03:26:18;;;;;;;49.75;34.47;;;;;;;9.81;84.44;100975.06;5078628;28;20047;-60
2022/12/21 03:28:46;;;;;;;50.13;35.13;;;;;;;9.80;84.24;100967.84;5089861;28;20032;-59
2022/12/21 03:31:23;;;;;;;46.83;34.95;;;;;;;9.80;84.33;100965.06;5089109;28;20040;-60
2022/12/21 03:33:58;;;;;;;46.78;34.30;;;;;;;9.78;84.27;100958.91;5090841;28;20085;-61
2022/12/21 03:36:30;;;;;;;49.42;35.15;;;;;;;9.78;84.30;100967.22;5090266;28;20032;-59
2022/12/21 03:39:08;;;;;;;47.33;33.47;;;;;;;9.80;84.40;100982.53;5089527;28;20383;-60
2022/12/21 03:41:43;;;;;;;45.63;34.35;;;;;;;9.76;84.08;100980.50;5077520;28;20028;-59
2022/12/21 03:44:13;;;;;;;44.85;33.30;;;;;;;9.76;84.21;100989.66;5078793;28;20039;-60
2022/12/21 03:46:54;;;;;;;51.25;36.42;;;;;;;9.76;84.46;100974.97;5090452;28;20040;-60
2022/12/21 03:49:26;;;;;;;50.22;34.70;;;;;;;9.76;84.37;100969.41;5089840;28;20570;-60
2022/12/21 03:51:59;;;;;;;50.88;34.13;;;;;;;9.77;84.05;100977.47;5088142;28;20475;-59
2022/12/21 03:54:42;;;;;;;48.50;35.15;;;;;;;9.75;84.29;100981.59;5088216;28;20056;-59
2022/12/21 03:57:09;;;;;;;47.25;33.42;;;;;;;9.76;84.04;100966.66;5078818;28;20523;-60
2022/12/21 03:59:41;;;;;;;53.60;35.58;;;;;;;9.72;84.44;100968.22;5088661;28;20036;-60
2022/12/21 04:02:14;;;;;;;45.25;32.58;;;;;;;9.72;84.02;100985.69;5086661;28;20064;-60
2022/12/21 04:04:39;;;;;;;41.38;31.40;;;;;;;9.73;84.15;100970.75;5089009;28;20032;-59
2022/12/21 04:07:07;;;;;;;44.10;31.50;;;;;;;9.75;84.11;100974.13;5089849;28;20047;-59
2022/12/21 04:09:33;;;;;;;43.33;31.15;;;;;;;9.74;83.92;100966.03;5086287;28;20043;-59
2022/12/21 04:14:43;;;;;;;41.47;30.95;;;;;;;9.72;84.12;100954.38;5085245;28;20051;-59
2022/12/21 04:17:08;;;;;;;40.17;29.23;;;;;;;9.72;83.71;100954.38;5089984;28;20032;-60
2022/12/21 04:30:30;;;;;;;31.25;23.52;;;;;;;9.70;82.80;100962.06;5081864;28;20047;-59
2022/12/21 04:32:55;;;;;;;33.88;23.70;;;;;;;9.69;82.90;100964.00;5089343;28;20032;-60
2022/12/21 04:35:20;;;;;;;31.52;22.35;;;;;;;9.69;82.51;100968.72;5076620;28;20056;-60
2022/12/21 04:37:46;;;;;;;30.80;21.30;;;;;;;9.69;82.72;100963.16;5070346;28;20028;-60
2022/12/21 04:40:14;;;;;;;31.08;20.77;;;;;;;9.67;82.71;100955.09;5088589;28;20036;-59
2022/12/21 04:42:42;;;;;;;29.20;21.73;;;;;;;9.65;82.83;100954.50;5088927;28;20036;-59
2022/12/21 04:45:10;;;;;;;29.48;20.88;;;;;;;9.65;82.57;100951.72;5089838;28;20026;-60
2022/12/21 04:47:35;;;;;;;30.02;20.05;;;;;;;9.65;82.01;100954.50;5089094;28;20035;-56
2022/12/21 04:50:02;;;;;;;26.63;19.17;;;;;;;9.65;82.17;100956.44;5089252;28;20032;-60
2022/12/21 04:52:27;;;;;;;27.10;19.85;;;;;;;9.62;82.24;100954.13;5085322;28;20134;-60
2022/12/21 04:54:53;;;;;;;29.25;19.33;;;;;;;9.63;82.18;100953.03;5090067;28;20056;-60
2022/12/21 04:57:18;;;;;;;24.38;18.02;;;;;;;9.57;81.96;100950.19;5090853;28;20450;-59
2022/12/21 04:59:44;;;;;;;28.23;18.65;;;;;;;9.59;82.18;100942.47;5089624;28;20036;-59
2022/12/21 05:02:10;;;;;;;26.20;19.20;;;;;;;9.58;82.17;100949.06;5090072;28;20090;-59
2022/12/21 05:04:35;;;;;;;29.77;18.77;;;;;;;9.57;81.84;100947.41;5090741;28;20800;-60
2022/12/21 05:07:01;;;;;;;26.85;18.83;;;;;;;9.55;82.05;100941.28;5089583;28;20832;-59
2022/12/21 05:09:26;;;;;;;25.48;18.08;;;;;;;9.54;81.98;100945.13;5080666;28;20048;-60
2022/12/21 05:11:53;;;;;;;26.02;17.85;;;;;;;9.53;82.06;100957.28;5088649;28;20020;-60
2022/12/21 05:14:18;;;;;;;24.08;18.13;;;;;;;9.55;81.85;100959.84;5090683;28;20028;-59
2022/12/21 05:16:43;;;;;;;24.55;17.20;;;;;;;9.52;82.09;100958.38;5087493;28;20027;-59
2022/12/21 05:19:09;;;;;;;26.40;16.08;;;;;;;9.53;81.94;100957.28;5090592;28;20039;-59
2022/12/21 05:21:34;;;;;;;24.63;18.40;;;;;;;9.54;82.15;100952.59;5089644;28;20031;-60
2022/12/21 05:24:02;;;;;;;30.40;18.65;;;;;;;9.53;81.56;100953.69;5089069;28;20136;-59
2022/12/21 05:26:27;;;;;;;22.80;17.55;;;;;;;9.55;82.04;100957.91;5084828;28;20490;-60
2022/12/21 05:28:52;;;;;;;24.67;16.90;;;;;;;9.53;81.73;100951.75;5090474;28;20040;-59
2022/12/21 05:31:19;;;;;;;21.38;15.73;;;;;;;9.54;81.46;100934.03;5086765;28;20080;-60
2022/12/21 05:33:44;;;;;;;21.02;16.30;;;;;;;9.55;81.43;100945.97;5090242;28;20051;-60
2022/12/21 05:36:11;;;;;;;23.30;16.20;;;;;;;9.54;81.37;100949.81;5089858;28;20464;-60
2022/12/21 05:38:37;;;;;;;24.10;16.15;;;;;;;9.53;81.11;100942.59;5088570;28;20093;-59
2022/12/21 05:41:03;;;;;;;22.17;15.80;;;;;;;9.49;81.47;100949.72;5087691;28;20119;-59
2022/12/21 05:43:29;;;;;;;23.17;16.02;;;;;;;9.48;81.50;100946.09;5083641;28;20468;-59
2022/12/21 05:45:59;;;;;;;25.08;16.00;;;;;;;9.49;81.34;100945.00;5089653;28;20085;-60
2022/12/21 05:48:25;;;;;;;24.52;15.38;;;;;;;9.49;81.13;100950.56;5088095;28;20020;-60
2022/12/21 05:50:50;;;;;;;23.83;15.63;;;;;;;9.47;80.84;100947.19;5087684;28;20490;-59
2022/12/21 05:53:15;;;;;;;21.80;15.73;;;;;;;9.44;80.74;100947.69;5090261;28;20035;-59
2022/12/21 05:55:47;;;;;;;24.70;15.93;;;;;;;9.44;80.87;100944.06;5089887;28;20032;-59
2022/12/21 05:58:13;;;;;;;19.38;14.90;;;;;;;9.45;81.19;100931.91;5087743;28;20147;-59
2022/12/21 06:00:38;;;;;;;22.92;15.32;;;;;;;9.43;81.17;100940.47;5072366;28;20032;-60
2022/12/21 06:03:04;;;;;;;18.98;13.93;;;;;;;9.43;80.57;100937.69;5084510;28;20110;-60
2022/12/21 06:05:30;;;;;;;19.95;13.32;;;;;;;9.40;80.82;100931.78;5088308;28;20020;-59
2022/12/21 06:07:55;;;;;;;20.55;13.88;;;;;;;9.40;80.28;100934.56;5086521;28;20076;-59
2022/12/21 06:10:20;;;;;;;18.08;12.38;;;;;;;9.40;80.32;100924.31;5078719;28;20123;-59
2022/12/21 06:12:45;;;;;;;19.40;12.25;;;;;;;9.38;80.25;100926.47;5076545;28;20035;-59
2022/12/21 06:15:11;;;;;;;16.85;11.85;;;;;;;9.37;80.15;100930.34;5078811;28;20498;-60
2022/12/21 06:17:36;;;;;;;17.25;11.80;;;;;;;9.36;80.43;100933.38;5088729;28;20024;-59
2022/12/21 06:20:02;;;;;;;18.38;11.93;;;;;;;9.37;80.62;100943.34;5093360;28;20032;-58
2022/12/21 06:22:27;;;;;;;18.88;11.60;;;;;;;9.35;80.25;100935.28;5091845;28;20035;-58
2022/12/21 06:24:52;;;;;;;20.60;11.02;;;;;;;9.34;80.18;100933.59;5091531;28;20123;-58
2022/12/21 06:27:18;;;;;;;16.88;11.00;;;;;;;9.31;80.40;100939.59;5093031;28;20043;-58
2022/12/21 06:29:43;;;;;;;18.70;11.18;;;;;;;9.32;79.98;100933.00;5092337;28;20115;-58
2022/12/21 06:32:10;;;;;;;19.80;11.50;;;;;;;9.32;79.86;100927.47;5093004;28;20085;-58
2022/12/21 06:34:35;;;;;;;14.70;9.95;;;;;;;9.31;80.06;100939.59;5078333;28;20048;-58
2022/12/21 06:37:01;;;;;;;14.43;10.07;;;;;;;9.28;79.83;100934.59;5073521;28;20033;-58
2022/12/21 06:39:26;;;;;;;15.43;8.98;;;;;;;9.27;80.05;100935.66;5073059;28;20472;-58
2022/12/21 06:41:51;;;;;;;15.93;8.70;;;;;;;9.24;80.09;100925.91;5092595;28;20027;-58
2022/12/21 06:44:16;;;;;;;14.85;8.43;;;;;;;9.24;80.06;100923.13;5092683;28;20371;-58
2022/12/21 06:46:42;;;;;;;15.95;7.93;;;;;;;9.25;80.08;100935.91;5092959;28;20137;-58
2022/12/21 06:49:08;;;;;;;13.25;7.35;;;;;;;9.22;79.98;100933.59;5092978;28;20028;-58
2022/12/21 06:51:33;;;;;;;14.77;8.15;;;;;;;9.23;79.91;100931.69;5083064;28;20072;-58
2022/12/21 06:53:58;;;;;;;15.13;8.20;;;;;;;9.21;80.27;100939.41;5084485;28;20028;-58
2022/12/21 06:56:26;;;;;;;11.30;7.10;;;;;;;9.24;79.92;100944.47;5089746;28;20028;-58
2022/12/21 06:58:53;;;;;;;14.73;7.30;;;;;;;9.24;79.81;100950.00;5090415;28;20031;-58
2022/12/21 07:01:24;;;;;;;12.20;7.43;;;;;;;9.20;79.63;100957.94;5092121;28;20441;-58
2022/12/21 07:03:50;;;;;;;9.70;6.60;;;;;;;9.26;80.02;100958.91;5092524;28;20020;-58
2022/12/21 07:06:17;;;;;;;14.38;7.72;;;;;;;9.23;79.52;100951.06;5089434;28;20082;-58
2022/12/21 07:08:43;;;;;;;10.13;6.65;;;;;;;9.20;79.16;100957.94;5078120;28;20070;-58
2022/12/21 07:11:11;;;;;;;11.45;5.95;;;;;;;9.22;79.13;100950.22;5086003;28;20032;-58
2022/12/21 07:13:39;;;;;;;12.02;6.30;;;;;;;9.19;79.15;100952.63;5090303;28;20064;-58
2022/12/21 07:16:05;;;;;;;13.57;6.35;;;;;;;9.18;79.21;100953.72;5088177;28;20575;-58
2022/12/21 07:18:31;;;;;;;11.80;5.72;;;;;;;9.13;79.02;100956.38;5089893;28;20522;-58
2022/12/21 07:20:58;;;;;;;11.75;6.32;;;;;;;9.14;79.24;100958.06;5090141;28;20027;-59
2022/12/21 07:23:25;;;;;;;10.20;6.25;;;;;;;9.06;78.95;100968.41;5087013;28;20036;-58
2022/12/21 07:25:50;;;;;;;12.02;6.32;;;;;;;9.09;79.24;100964.31;5080505;28;20020;-58
2022/12/21 07:28:15;;;;;;;11.55;5.93;;;;;;;9.08;79.64;100969.03;5089825;28;20039;-58
2022/12/21 07:30:41;;;;;;;15.93;6.90;;;;;;;9.10;79.27;100963.22;5080641;28;20476;-60
2022/12/21 07:33:06;;;;;;;14.02;6.55;;;;;;;9.10;79.02;100966.00;5088499;28;20035;-60
2022/12/21 07:35:31;;;;;;;12.07;5.82;;;;;;;9.08;79.34;100969.03;5091499;28;20063;-60
2022/12/21 07:37:56;;;;;;;14.40;6.63;;;;;;;9.08;78.81;100974.56;5090144;28;20055;-59
2022/12/21 07:40:22;;;;;;;9.50;5.70;;;;;;;9.14;79.36;100985.75;5091219;28;20160;-59
2022/12/21 07:42:47;;;;;;;11.05;6.00;;;;;;;9.07;79.16;100983.09;5092154;28;20032;-59
2022/12/21 07:45:13;;;;;;;12.88;6.35;;;;;;;9.08;79.05;101005.03;5078046;28;20031;-59
2022/12/21 07:47:38;;;;;;;12.15;6.15;;;;;;;9.10;78.76;101007.53;5085771;28;20037;-59
2022/12/21 07:50:06;;;;;;;12.88;6.60;;;;;;;9.09;79.19;101014.16;5071367;28;20066;-59
2022/12/21 07:52:31;;;;;;;11.23;6.18;;;;;;;9.09;79.50;101019.69;5088388;28;20028;-59
2022/12/21 07:54:57;;;;;;;12.40;6.25;;;;;;;9.10;79.25;101026.91;5088662;28;20024;-59
2022/12/21 07:57:23;;;;;;;14.18;6.75;;;;;;;9.08;79.52;101018.88;5091374;28;20020;-59
2022/12/21 07:59:48;;;;;;;16.33;7.43;;;;;;;9.08;79.50;101023.56;5087488;28;20032;-59
2022/12/21 08:02:13;;;;;;;15.98;7.15;;;;;;;9.08;79.54;101029.94;5089760;28;20048;-59
2022/12/21 08:04:39;;;;;;;12.32;6.88;;;;;;;9.08;79.36;101018.03;5091714;28;20051;-59
2022/12/21 08:07:05;;;;;;;13.02;7.05;;;;;;;9.06;79.08;101021.00;5091711;28;20107;-59
2022/12/21 08:09:31;;;;;;;11.57;6.50;;;;;;;9.05;79.48;101019.34;5089087;28;20036;-59
2022/12/21 08:11:56;;;;;;;15.55;7.25;;;;;;;9.07;79.21;101011.63;5076401;28;20020;-58
2022/12/21 08:14:23;;;;;;;13.57;6.88;;;;;;;9.06;79.47;101004.41;5091824;28;20031;-58
2022/12/21 08:16:48;;;;;;;13.18;7.22;;;;;;;9.06;79.66;100998.88;5079764;28;20388;-57
2022/12/21 08:19:13;;;;;;;16.73;7.63;;;;;;;9.16;80.69;101006.59;5088717;28;20028;-60
2022/12/21 08:21:39;;;;;;;14.77;7.95;;;;;;;9.16;79.49;101016.81;5090245;28;20115;-68
2022/12/21 08:24:04;;;;;;;18.75;8.10;;;;;;;9.15;79.59;101023.44;5088081;28;20028;-57
2022/12/21 08:26:30;;;;;;;14.73;7.68;;;;;;;9.12;79.29;101035.84;5086847;28;20043;-57
2022/12/21 08:28:56;;;;;;;12.35;8.13;;;;;;;9.12;79.62;101024.78;5080990;28;20035;-58
2022/12/21 08:31:22;;;;;;;14.55;8.35;;;;;;;9.13;79.61;101022.84;5073447;28;20065;-60
2022/12/21 08:33:48;;;;;;;18.50;9.30;;;;;;;9.15;79.83;101023.44;5089842;28;20028;-60
2022/12/21 08:36:16;;;;;;;16.33;9.05;;;;;;;9.13;79.79;101020.06;5091314;28;20391;-60
2022/12/21 08:38:41;;;;;;;20.38;9.35;;;;;;;9.13;79.82;101018.16;5091329;28;20036;-60
2022/12/21 08:41:06;;;;;;;17.08;9.18;;;;;;;9.14;79.92;101018.97;5085698;28;20476;-60
2022/12/21 08:43:34;;;;;;;15.70;9.70;;;;;;;9.13;80.13;101018.16;5090784;28;20127;-60
2022/12/21 08:46:04;;;;;;;19.05;10.32;;;;;;;9.15;80.34;101023.44;5089358;28;20020;-59
2022/12/21 08:48:29;;;;;;;18.52;9.65;;;;;;;9.18;80.37;101017.41;5075321;28;20036;-59
2022/12/21 08:50:55;;;;;;;20.60;11.05;;;;;;;9.15;79.97;101015.13;5077932;28;20467;-61
2022/12/21 08:53:20;;;;;;;19.02;9.93;;;;;;;9.18;80.16;101025.72;5080642;28;20960;-59
2022/12/21 08:55:48;;;;;;;17.67;10.48;;;;;;;9.19;80.14;101021.88;5089209;28;20051;-58
2022/12/21 08:58:13;;;;;;;20.65;11.48;;;;;;;9.21;80.29;101026.09;5086329;28;20480;-58
2022/12/21 09:00:39;;;;;;;24.45;11.82;;;;;;;9.23;80.44;101025.84;5086731;28;20061;-58
2022/12/21 09:03:07;;;;;;;17.25;8.02;;;;;;;9.48;82.76;101023.69;5083698;28;20500;-60
2022/12/21 09:05:33;;;;;;;23.92;13.57;;;;;;;9.36;80.72;101022.00;5088842;28;20057;-60
2022/12/21 09:08:00;;;;;;;22.88;14.02;;;;;;;9.47;80.92;101018.38;5086699;28;20464;-60
2022/12/21 09:10:25;;;;;;;27.58;15.25;;;;;;;9.50;79.77;101013.19;5088167;28;20372;-60
2022/12/21 09:12:51;;;;;;;21.25;14.82;;;;;;;9.48;80.12;101009.84;5090501;28;20024;-60
2022/12/21 09:15:16;;;;;;;21.80;14.52;;;;;;;9.46;79.82;101006.44;5085567;28;20761;-60
2022/12/21 09:17:41;;;;;;;26.77;15.63;;;;;;;9.41;80.16;101011.88;5087411;28;20016;-60
2022/12/21 09:20:08;;;;;;;27.48;15.50;;;;;;;9.36;80.01;100997.91;5083269;28;20491;-60
2022/12/21 09:22:33;;;;;;;26.20;15.13;;;;;;;9.36;80.44;100997.91;5085954;28;20034;-60
2022/12/21 09:24:58;;;;;;;24.73;15.63;;;;;;;9.36;80.39;100994.31;5087099;28;20024;-58
2022/12/21 09:27:24;;;;;;;25.25;15.30;;;;;;;9.36;80.63;101000.69;5086544;28;20028;-60
2022/12/21 09:29:49;;;;;;;24.85;15.05;;;;;;;9.40;80.61;101006.59;5088225;28;20027;-60
2022/12/21 09:32:14;;;;;;;28.65;15.68;;;;;;;9.37;80.39;101010.69;5083283;28;20016;-59
2022/12/21 09:34:40;;;;;;;25.63;15.30;;;;;;;9.37;80.57;101016.22;5086205;28;20479;-60
2022/12/21 09:37:05;;;;;;;26.45;14.73;;;;;;;9.39;80.69;101015.97;5080027;28;20032;-61
2022/12/21 09:39:30;;;;;;;28.02;15.32;;;;;;;9.41;80.56;101022.97;5079156;28;20059;-60
2022/12/21 09:42:07;;;;;;;25.27;15.07;;;;;;;9.46;80.66;101023.06;5085101;28;20048;-60
2022/12/21 09:44:44;;;;;;;29.17;15.75;;;;;;;9.49;80.86;101019.81;5086817;28;20577;-60
2022/12/21 09:47:17;;;;;;;27.27;14.82;;;;;;;9.52;80.84;101030.44;5087745;28;20082;-60
2022/12/21 09:49:42;;;;;;;;;;;;;;;9.65;80.55;101031.25;5088063;28;20475;-60
2022/12/21 09:52:20;;;;;;;26.13;14.30;;;;;;;9.53;80.45;101034.03;5086655;28;19974;-60
2022/12/21 09:54:54;;;;;;;30.73;14.90;;;;;;;9.51;80.76;101037.06;5084773;28;20023;-60
2022/12/21 09:57:20;;;;;;;26.20;15.05;;;;;;;9.52;80.58;101024.88;5087242;28;20028;-61
2022/12/21 09:59:45;;;;;;;25.73;14.02;;;;;;;9.53;80.59;101032.09;5088723;28;20123;-61
2022/12/21 10:02:29;;;;;;;26.08;14.80;;;;;;;9.56;80.73;101037.16;5088173;28;20085;-60
2022/12/21 10:05:16;;;;;;;22.25;13.32;;;;;;;9.56;80.23;101028.03;5087137;28;20493;-61
2022/12/21 10:08:09;;;;;;;25.27;13.88;;;;;;;9.53;80.36;101031.28;5089579;28;20057;-61
2022/12/21 10:10:48;;;;;;;;;;;;;;;9.60;80.26;101032.00;5085843;28;20028;-61
2022/12/21 10:13:32;;;;;;;24.73;13.52;;;;;;;9.53;80.50;101032.09;5088143;28;19920;-61
2022/12/21 10:16:29;;;;;;;24.67;14.25;;;;;;;9.51;80.67;101038.97;5088607;28;20046;-61
2022/12/21 10:19:04;;;;;;;25.10;13.48;;;;;;;9.54;80.51;101039.31;5088778;28;20112;-60
2022/12/21 10:21:38;;;;;;;26.17;13.18;;;;;;;9.54;80.90;101038.50;5089282;28;20060;-61
2022/12/21 10:24:13;;;;;;;21.55;12.93;;;;;;;9.52;80.58;101047.06;5087812;28;20055;-60
2022/12/21 10:26:38;;;;;;;24.40;13.90;;;;;;;9.51;80.70;101037.06;5078223;28;20168;-59
2022/12/21 10:29:13;;;;;;;22.38;13.00;;;;;;;9.53;80.62;101043.19;5089536;28;20147;-60
2022/12/21 10:31:44;;;;;;;25.23;13.35;;;;;;;9.52;80.40;101035.97;5083516;28;20449;-60
2022/12/21 10:34:23;;;;;;;21.80;12.90;;;;;;;9.52;80.58;101035.13;5087391;28;20403;-60
2022/12/21 10:36:55;;;;;;;23.23;13.32;;;;;;;9.49;80.73;101033.69;5089250;28;20043;-60
2022/12/21 10:39:20;;;;;;;24.00;12.07;;;;;;;9.51;80.51;101027.88;5086129;28;20049;-60
2022/12/21 10:42:01;;;;;;;24.20;12.23;;;;;;;9.55;80.71;101034.66;5088271;28;20028;-60
2022/12/21 10:44:26;;;;;;;26.70;12.45;;;;;;;9.54;80.04;101019.94;5088856;28;20115;-60
2022/12/21 10:46:52;;;;;;;22.73;11.95;;;;;;;9.52;80.60;101019.34;5088083;28;20027;-60
2022/12/21 10:49:36;;;;;;;22.35;12.15;;;;;;;9.57;80.63;101008.38;5083734;28;20135;-59
2022/12/21 10:52:41;;;;;;;21.17;11.90;;;;;;;9.59;80.54;101003.44;5089058;28;20035;-59
2022/12/21 10:55:26;;;;;;;23.15;12.57;;;;;;;9.62;80.50;101001.25;5081410;28;20082;-59
2022/12/21 10:58:01;;;;;;;24.60;12.75;;;;;;;9.59;80.40;100997.91;5087578;28;20039;-59
2022/12/21 11:00:27;;;;;;;24.30;12.85;;;;;;;9.61;80.47;100994.88;5087001;28;20024;-59
2022/12/21 11:02:59;;;;;;;21.20;12.43;;;;;;;9.62;80.20;100990.16;5087330;28;20047;-59
2022/12/21 11:05:36;;;;;;;23.13;12.73;;;;;;;9.60;79.96;100993.19;5091692;28;20032;-59
2022/12/21 11:08:14;;;;;;;26.25;13.05;;;;;;;9.65;80.36;100986.91;5084764;28;20028;-59
2022/12/21 11:10:45;;;;;;;23.02;12.98;;;;;;;9.61;79.97;100988.50;5091810;28;20055;-59
2022/12/21 11:13:12;;;;;;;27.27;12.90;;;;;;;9.57;80.22;100986.19;5092288;28;20645;-59
2022/12/21 11:15:38;;;;;;;23.83;12.95;;;;;;;9.60;79.98;100987.66;5091714;28;20104;-59
2022/12/21 11:18:16;;;;;;;25.90;13.23;;;;;;;9.62;79.88;100988.22;5090906;28;20020;-59
2022/12/21 11:20:48;;;;;;;66.38;13.07;;;;;;;9.68;80.24;100986.44;5089451;28;20111;-58
2022/12/21 11:23:14;;;;;;;20.85;12.73;;;;;;;9.69;80.10;100991.72;5088823;28;20020;-59
2022/12/21 11:25:41;;;;;;;23.38;12.95;;;;;;;9.65;79.57;100990.53;5081603;28;20490;-59
2022/12/21 11:28:08;;;;;;;20.40;12.55;;;;;;;9.62;79.94;100985.47;5084376;28;20034;-59
2022/12/21 11:30:35;;;;;;;21.73;13.32;;;;;;;9.58;80.22;100998.13;5082550;28;20038;-59
2022/12/21 11:33:02;;;;;;;18.67;12.65;;;;;;;9.57;80.01;100994.50;5090667;28;20035;-59
2022/12/21 11:35:35;;;;;;;24.10;12.82;;;;;;;9.58;80.27;100993.41;5087928;28;20074;-59
2022/12/21 11:38:14;;;;;;;22.80;12.77;;;;;;;9.62;80.46;100985.47;5090870;28;20044;-59
2022/12/21 11:40:53;;;;;;;20.70;12.48;;;;;;;9.62;80.21;100979.91;5086178;28;20024;-59
2022/12/21 11:43:18;;;;;;;22.77;12.07;;;;;;;9.59;79.99;100977.66;5087852;28;20042;-61
2022/12/21 11:46:13;;;;;;;21.33;13.02;;;;;;;9.66;80.40;100978.34;5085389;28;20024;-61
2022/12/21 11:49:06;;;;;;;23.75;12.60;;;;;;;9.65;80.03;100981.38;5092043;28;20035;-60